createdAt,value
2023-12-28T00:00:55.181Z,4.00
2023-12-28T00:03:44.859Z,3.78
2023-12-28T00:06:34.791Z,3.39
2023-12-28T00:09:29.298Z,3.23
2023-12-28T00:12:21.251Z,3.09
2023-12-28T00:15:11.250Z,2.85
2023-12-28T00:18:02.267Z,2.68
2023-12-28T00:20:50.962Z,2.47
2023-12-28T00:23:38.601Z,2.44
2023-12-28T00:26:24.634Z,2.34
2023-12-28T00:29:12.013Z,2.24
2023-12-28T00:32:03.308Z,2.45
2023-12-28T00:34:55.150Z,2.42
2023-12-28T00:37:41.091Z,2.38
2023-12-28T00:40:31.702Z,2.37
2023-12-28T00:43:18.932Z,2.46
2023-12-28T00:46:05.351Z,2.46
2023-12-28T00:48:56.105Z,2.47
2023-12-28T00:51:42.987Z,2.39
2023-12-28T00:54:35.668Z,2.34
2023-12-28T00:57:27.251Z,2.30
2023-12-28T01:00:16.611Z,2.34
2023-12-28T01:03:03.113Z,2.45
2023-12-28T01:05:55.744Z,2.53
2023-12-28T01:08:44.075Z,2.58
2023-12-28T01:11:34.580Z,2.64
2023-12-28T01:14:20.598Z,2.72
2023-12-28T01:17:07.129Z,2.69
2023-12-28T01:19:59.063Z,2.78
2023-12-28T01:22:51.729Z,2.81
2023-12-28T01:25:41.662Z,2.82
2023-12-28T01:28:34.508Z,2.85
2023-12-28T01:31:19.261Z,2.82
2023-12-28T01:34:11.368Z,2.87
2023-12-28T01:36:58.736Z,2.87
2023-12-28T01:39:50.453Z,2.97
2023-12-28T01:42:37.551Z,2.95
2023-12-28T01:45:28.893Z,2.94
2023-12-28T01:48:22.987Z,2.92
2023-12-28T01:51:09.451Z,2.96
2023-12-28T01:54:00.838Z,3.00
2023-12-28T01:56:52.932Z,3.06
2023-12-28T01:59:43.010Z,3.17
2023-12-28T02:02:32.195Z,3.31
2023-12-28T02:05:23.478Z,3.37
2023-12-28T02:08:11.194Z,3.26
2023-12-28T02:11:01.339Z,3.27
2023-12-28T02:13:49.213Z,3.07
2023-12-28T02:16:42.121Z,3.01
2023-12-28T02:19:47.264Z,2.93
2023-12-28T02:22:35.375Z,2.97
2023-12-28T02:25:25.539Z,2.85
2023-12-28T02:28:10.786Z,2.69
2023-12-28T02:31:01.435Z,2.66
2023-12-28T02:33:56.203Z,2.44
2023-12-28T02:36:47.748Z,2.37
2023-12-28T02:39:37.221Z,2.24
2023-12-28T02:42:32.098Z,2.09
2023-12-28T02:45:21.250Z,1.90
2023-12-28T02:48:09.851Z,1.80
2023-12-28T02:50:59.587Z,1.68
2023-12-28T02:53:46.942Z,1.49
2023-12-28T02:56:36.026Z,1.51
2023-12-28T02:59:27.648Z,1.48
2023-12-28T03:02:15.354Z,1.50
2023-12-28T03:04:59.486Z,1.59
2023-12-28T03:07:49.730Z,1.59
2023-12-28T03:10:39.474Z,1.52
2023-12-28T03:13:29.892Z,1.34
2023-12-28T03:16:24.212Z,1.38
2023-12-28T03:19:11.187Z,1.46
2023-12-28T03:21:59.522Z,1.59
2023-12-28T03:24:49.947Z,1.64
2023-12-28T03:27:39.417Z,1.60
2023-12-28T03:30:29.641Z,1.54
2023-12-28T03:33:21.056Z,1.45
2023-12-28T03:36:08.907Z,1.33
2023-12-28T03:38:57.794Z,1.31
2023-12-28T03:41:47.559Z,1.24
2023-12-28T03:44:33.736Z,1.24
2023-12-28T03:47:25.695Z,1.15
2023-12-28T03:50:14.335Z,1.13
2023-12-28T03:53:00.844Z,1.10
2023-12-28T03:55:48.194Z,1.14
2023-12-28T03:58:36.224Z,1.13
2023-12-28T04:01:27.428Z,1.01
2023-12-28T04:04:16.631Z,1.08
2023-12-28T04:07:09.343Z,1.18
2023-12-28T04:09:59.719Z,1.18
2023-12-28T04:12:50.381Z,1.19
2023-12-28T04:15:37.910Z,1.24
2023-12-28T04:18:21.811Z,1.22
2023-12-28T04:21:14.374Z,1.44
2023-12-28T04:24:05.655Z,1.46
2023-12-28T04:26:56.960Z,1.65
2023-12-28T04:29:44.801Z,1.71
2023-12-28T04:32:37.049Z,1.85
2023-12-28T04:35:30.067Z,1.87
2023-12-28T04:38:19.373Z,1.99
2023-12-28T04:41:06.524Z,2.05
2023-12-28T04:43:55.168Z,2.09
2023-12-28T04:46:47.343Z,2.14
2023-12-28T04:49:36.829Z,2.20
2023-12-28T04:52:27.960Z,2.25
2023-12-28T04:55:16.890Z,2.33
2023-12-28T04:58:06.935Z,2.43
2023-12-28T05:00:55.648Z,2.41
2023-12-28T05:03:42.179Z,2.25
2023-12-28T05:06:35.876Z,2.22
2023-12-28T05:09:21.212Z,2.19
2023-12-28T05:12:07.217Z,2.04
2023-12-28T05:15:01.360Z,2.03
2023-12-28T05:17:50.768Z,1.78
2023-12-28T05:20:43.757Z,1.57
2023-12-28T05:23:28.249Z,1.50
2023-12-28T05:26:16.859Z,1.55
2023-12-28T05:29:04.655Z,1.45
2023-12-28T05:31:55.346Z,1.43
2023-12-28T05:34:43.533Z,1.30
2023-12-28T05:37:34.658Z,1.29
2023-12-28T05:40:23.437Z,1.18
2023-12-28T05:43:09.035Z,1.05
2023-12-28T05:45:58.814Z,1.10
2023-12-28T05:48:44.559Z,1.06
2023-12-28T05:51:31.410Z,0.83
2023-12-28T05:54:22.184Z,0.76
2023-12-28T05:57:11.375Z,0.81
2023-12-28T06:00:01.413Z,0.76
2023-12-28T06:02:48.654Z,0.71
2023-12-28T06:05:36.295Z,0.79
2023-12-28T06:08:21.071Z,0.70
2023-12-28T06:11:07.744Z,0.61
2023-12-28T06:13:54.788Z,0.67
2023-12-28T06:16:40.372Z,0.58
2023-12-28T06:19:29.286Z,0.54
2023-12-28T06:22:19.255Z,0.56
2023-12-28T06:25:07.343Z,0.69
2023-12-28T06:27:57.502Z,0.75
2023-12-28T06:30:44.003Z,0.87
2023-12-28T06:33:34.033Z,0.97
2023-12-28T06:36:22.662Z,0.97
2023-12-28T06:39:11.683Z,1.08
2023-12-28T06:41:58.037Z,1.10
2023-12-28T06:44:47.423Z,1.05
2023-12-28T06:47:32.520Z,1.12
2023-12-28T06:50:20.702Z,1.27
2023-12-28T06:53:12.792Z,1.44
2023-12-28T06:56:01.726Z,1.46
2023-12-28T06:58:51.051Z,1.51
2023-12-28T07:01:41.812Z,1.68
2023-12-28T07:04:31.389Z,1.93
2023-12-28T07:07:19.845Z,2.30
2023-12-28T07:10:04.176Z,3.42
2023-12-28T07:12:55.334Z,5.00
2023-12-28T07:15:45.096Z,6.53
2023-12-28T07:18:34.070Z,8.22
2023-12-28T07:21:22.182Z,9.33
2023-12-28T07:24:11.106Z,9.95
2023-12-28T07:27:01.452Z,10.12
2023-12-28T07:29:54.224Z,10.29
2023-12-28T07:32:40.586Z,10.41
2023-12-28T07:35:30.636Z,10.89
2023-12-28T07:38:17.522Z,11.24
2023-12-28T07:41:05.024Z,11.52
2023-12-28T07:43:54.208Z,12.94
2023-12-28T07:46:43.886Z,13.57
2023-12-28T07:49:32.499Z,14.49
2023-12-28T07:52:19.770Z,15.46
2023-12-28T07:55:07.959Z,15.51
2023-12-28T07:57:59.030Z,16.13
2023-12-28T08:00:45.889Z,16.69
2023-12-28T08:03:33.757Z,15.96
2023-12-28T08:06:26.360Z,16.25
2023-12-28T08:09:14.567Z,15.56
2023-12-28T08:12:02.866Z,15.57
2023-12-28T08:14:54.727Z,16.48
2023-12-28T08:17:44.184Z,15.70
2023-12-28T08:20:40.127Z,16.35
2023-12-28T08:23:46.025Z,17.24
2023-12-28T08:26:37.985Z,18.12
2023-12-28T08:29:27.176Z,18.47
2023-12-28T08:32:13.918Z,18.50
2023-12-28T08:35:04.610Z,18.69
2023-12-28T08:37:56.073Z,19.02
2023-12-28T08:40:43.097Z,19.46
2023-12-28T08:43:33.855Z,20.07
2023-12-28T08:46:23.365Z,19.39
2023-12-28T08:49:10.808Z,19.83
2023-12-28T08:51:57.499Z,19.33
2023-12-28T08:54:44.386Z,19.64
2023-12-28T08:57:40.305Z,19.27
2023-12-28T09:00:31.761Z,19.16
2023-12-28T09:03:17.861Z,18.69
2023-12-28T09:06:06.754Z,18.83
2023-12-28T09:08:55.354Z,17.84
2023-12-28T09:11:45.705Z,16.11
2023-12-28T09:14:36.355Z,15.22
2023-12-28T09:17:29.351Z,15.03
2023-12-28T09:20:19.978Z,14.81
2023-12-28T09:23:04.620Z,13.89
2023-12-28T09:25:52.618Z,13.34
2023-12-28T09:28:44.604Z,12.43
2023-12-28T09:31:36.127Z,11.90
2023-12-28T09:34:27.770Z,11.55
2023-12-28T09:37:14.516Z,10.89
2023-12-28T09:40:01.838Z,10.86
2023-12-28T09:43:10.072Z,10.52
2023-12-28T09:46:00.954Z,10.43
2023-12-28T09:48:48.988Z,10.43
2023-12-28T09:51:34.673Z,10.33
2023-12-28T09:54:22.195Z,10.30
2023-12-28T09:57:07.409Z,10.58
2023-12-28T09:59:54.528Z,11.27
2023-12-28T10:02:49.358Z,11.47
2023-12-28T10:05:33.939Z,12.58
2023-12-28T10:08:23.088Z,13.38
2023-12-28T10:11:07.941Z,15.04
2023-12-28T10:13:57.497Z,16.08
2023-12-28T10:16:47.530Z,16.87
2023-12-28T10:19:36.849Z,18.15
2023-12-28T10:22:27.778Z,19.31
2023-12-28T10:25:17.221Z,19.32
2023-12-28T10:28:10.077Z,19.48
2023-12-28T10:31:02.053Z,19.65
2023-12-28T10:33:52.481Z,20.02
2023-12-28T10:36:41.978Z,20.70
2023-12-28T10:39:36.128Z,20.55
2023-12-28T10:42:34.571Z,19.65
2023-12-28T10:45:30.618Z,20.10
2023-12-28T10:48:17.078Z,20.16
2023-12-28T10:51:09.913Z,20.80
2023-12-28T10:54:11.797Z,21.53
2023-12-28T10:57:08.133Z,22.36
2023-12-28T11:00:04.479Z,22.37
2023-12-28T11:02:57.631Z,22.73
2023-12-28T11:05:49.632Z,22.11
2023-12-28T11:08:40.568Z,22.71
2023-12-28T11:11:30.998Z,23.07
2023-12-28T11:14:19.021Z,23.46
2023-12-28T11:17:04.662Z,22.90
2023-12-28T11:19:53.127Z,23.31
2023-12-28T11:22:46.820Z,23.21
2023-12-28T11:25:35.495Z,23.86
2023-12-28T11:28:24.553Z,23.10
2023-12-28T11:31:16.797Z,23.53
2023-12-28T11:42:06.200Z,23.91
2023-12-28T11:44:56.476Z,23.21
2023-12-28T11:47:40.069Z,23.15
2023-12-28T11:50:23.479Z,22.88
2023-12-28T11:53:07.049Z,22.29
2023-12-28T11:55:50.145Z,21.52
2023-12-28T11:58:34.228Z,20.46
2023-12-28T12:01:19.108Z,19.28
2023-12-28T12:04:02.419Z,17.97
2023-12-28T12:06:47.376Z,17.43
2023-12-28T12:09:33.622Z,16.82
2023-12-28T12:12:19.315Z,15.81
2023-12-28T12:15:03.287Z,15.03
2023-12-28T12:17:48.901Z,14.55
2023-12-28T12:20:32.479Z,14.23
2023-12-28T12:23:15.791Z,13.99
2023-12-28T12:25:59.141Z,13.62
2023-12-28T12:28:44.555Z,13.39
2023-12-28T12:31:28.652Z,13.14
2023-12-28T12:34:13.878Z,12.79
2023-12-28T12:36:59.677Z,12.43
2023-12-28T12:39:43.012Z,12.38
2023-12-28T12:42:26.354Z,12.39
2023-12-28T12:45:10.192Z,12.37
2023-12-28T12:47:54.380Z,12.22
2023-12-28T12:50:39.162Z,12.09
2023-12-28T12:53:22.226Z,12.09
2023-12-28T12:56:06.442Z,11.94
2023-12-28T12:58:49.698Z,11.84
2023-12-28T13:01:32.915Z,11.75
2023-12-28T13:04:17.222Z,11.81
2023-12-28T13:07:02.080Z,11.78
2023-12-28T13:09:45.226Z,11.77
2023-12-28T13:12:30.906Z,11.75
2023-12-28T13:15:14.078Z,11.82
2023-12-28T13:17:57.260Z,11.91
2023-12-28T13:20:40.385Z,11.84
2023-12-28T13:23:24.975Z,11.76
2023-12-28T13:26:08.159Z,11.70
2023-12-28T13:28:51.283Z,11.63
2023-12-28T13:31:34.458Z,11.50
2023-12-28T13:34:17.744Z,11.52
2023-12-28T13:37:02.572Z,11.42
2023-12-28T13:39:48.501Z,11.39
2023-12-28T13:42:31.682Z,11.39
2023-12-28T13:45:14.973Z,11.35
2023-12-28T13:47:58.594Z,11.31
2023-12-28T13:50:41.716Z,11.39
2023-12-28T13:53:26.282Z,11.34
2023-12-28T13:56:13.436Z,11.34
2023-12-28T13:58:56.528Z,11.28
2023-12-28T14:01:44.407Z,11.19
2023-12-28T14:04:29.609Z,11.13
2023-12-28T14:07:15.525Z,11.07
2023-12-28T14:09:58.692Z,10.90
2023-12-28T14:12:46.278Z,10.78
2023-12-28T14:15:29.676Z,10.73
2023-12-28T14:18:12.830Z,10.69
2023-12-28T14:20:56.203Z,10.63
2023-12-28T14:23:40.261Z,10.62
2023-12-28T14:26:24.893Z,10.54
2023-12-28T14:29:09.944Z,10.42
2023-12-28T14:31:54.042Z,10.39
2023-12-28T14:34:37.769Z,10.32
2023-12-28T14:37:20.947Z,10.31
2023-12-28T14:40:07.597Z,10.23
2023-12-28T14:42:50.955Z,10.18
2023-12-28T14:45:35.552Z,10.11
2023-12-28T14:48:18.768Z,10.09
2023-12-28T14:51:02.016Z,9.84
2023-12-28T14:53:45.380Z,9.72
2023-12-28T14:56:36.265Z,9.53
2023-12-28T14:59:24.211Z,9.50
2023-12-28T15:02:08.881Z,9.38
2023-12-28T15:04:52.272Z,9.33
2023-12-28T15:07:35.510Z,9.34
2023-12-28T15:10:19.975Z,9.24
2023-12-28T15:13:03.688Z,9.21
2023-12-28T15:15:48.242Z,9.03
2023-12-28T15:18:42.938Z,8.96
2023-12-28T15:21:26.838Z,8.90
2023-12-28T15:24:10.746Z,8.89
2023-12-28T15:26:53.899Z,8.85
2023-12-28T15:29:37.091Z,8.75
2023-12-28T15:32:20.547Z,8.61
2023-12-28T15:35:07.636Z,8.42
2023-12-28T15:37:52.242Z,8.44
2023-12-28T15:40:35.444Z,8.44
2023-12-28T15:43:19.515Z,8.25
2023-12-28T15:46:03.035Z,8.12
2023-12-28T15:48:46.913Z,8.04
2023-12-28T15:51:31.532Z,7.89
2023-12-28T15:54:14.751Z,7.89
2023-12-28T15:56:58.372Z,7.79
2023-12-28T15:59:41.477Z,7.85
2023-12-28T16:02:24.583Z,7.85
2023-12-28T16:05:08.809Z,7.51
2023-12-28T16:07:53.351Z,7.33
2023-12-28T16:10:36.474Z,7.31
2023-12-28T16:13:19.562Z,7.18
2023-12-28T16:16:03.325Z,7.11
2023-12-28T16:18:47.259Z,7.21
2023-12-28T16:21:32.281Z,7.38
2023-12-28T16:24:16.872Z,7.19
2023-12-28T16:27:00.249Z,7.25
2023-12-28T16:29:43.499Z,7.08
2023-12-28T16:32:26.695Z,7.12
2023-12-28T16:35:10.290Z,7.06
2023-12-28T16:37:53.460Z,6.99
2023-12-28T16:40:37.968Z,6.92
2023-12-28T16:43:21.142Z,6.78
2023-12-28T16:46:04.344Z,6.80
2023-12-28T16:48:47.896Z,6.84
2023-12-28T16:51:31.126Z,6.78
2023-12-28T16:54:15.071Z,6.72
2023-12-28T16:57:00.186Z,6.59
2023-12-28T16:59:47.562Z,6.41
2023-12-28T17:02:33.403Z,6.29
2023-12-28T17:05:18.103Z,6.44
2023-12-28T17:08:01.933Z,6.53
2023-12-28T17:10:45.733Z,6.44
2023-12-28T17:13:31.170Z,6.43
2023-12-28T17:16:15.131Z,6.45
2023-12-28T17:18:58.805Z,6.45
2023-12-28T17:21:46.443Z,6.49
2023-12-28T17:24:38.304Z,6.44
2023-12-28T17:27:30.364Z,6.34
2023-12-28T17:30:17.780Z,6.33
2023-12-28T17:33:04.024Z,6.35
2023-12-28T17:35:47.861Z,6.32
2023-12-28T17:38:31.385Z,6.22
2023-12-28T17:41:19.110Z,6.33
2023-12-28T17:44:08.515Z,6.22
2023-12-28T17:46:58.404Z,6.09
2023-12-28T17:49:48.951Z,6.02
2023-12-28T17:52:34.627Z,6.17
2023-12-28T17:55:17.980Z,6.21
2023-12-28T17:58:01.849Z,5.98
2023-12-28T18:00:45.181Z,5.96
2023-12-28T18:03:30.008Z,5.96
2023-12-28T18:06:13.262Z,5.89
2023-12-28T18:08:56.334Z,5.95
2023-12-28T18:11:39.503Z,6.04
2023-12-28T18:14:24.584Z,5.92
2023-12-28T18:17:08.232Z,5.64
2023-12-28T18:19:52.939Z,5.59
2023-12-28T18:22:36.505Z,5.64
2023-12-28T18:25:19.678Z,5.57
2023-12-28T18:28:05.184Z,5.78
2023-12-28T18:30:48.452Z,5.76
2023-12-28T18:33:31.723Z,5.69
2023-12-28T18:36:19.241Z,5.60
2023-12-28T18:39:02.389Z,5.43
2023-12-28T18:41:45.521Z,5.18
2023-12-28T18:44:34.313Z,5.12
2023-12-28T18:47:17.944Z,5.04
2023-12-28T18:50:01.264Z,5.01
2023-12-28T18:52:45.892Z,5.00
2023-12-28T18:55:28.926Z,5.11
2023-12-28T18:58:12.181Z,5.04
2023-12-28T19:00:55.410Z,4.86
2023-12-28T19:03:46.785Z,4.78
2023-12-28T19:06:31.294Z,4.70
2023-12-28T19:09:15.849Z,4.36
2023-12-28T19:11:58.974Z,4.40
2023-12-28T19:14:42.294Z,4.40
2023-12-28T19:17:25.428Z,4.33
2023-12-28T19:20:09.952Z,4.21
2023-12-28T19:22:53.159Z,4.33
2023-12-28T19:25:37.692Z,4.40
2023-12-28T19:28:20.895Z,4.35
2023-12-28T19:31:04.110Z,4.38
2023-12-28T19:33:47.380Z,4.39
2023-12-28T19:36:30.592Z,4.31
2023-12-28T19:39:13.897Z,4.31
2023-12-28T19:41:58.348Z,4.31
2023-12-28T19:44:41.441Z,4.26
2023-12-28T19:47:25.184Z,4.11
2023-12-28T19:50:09.670Z,4.05
2023-12-28T19:52:52.763Z,4.19
2023-12-28T19:55:35.925Z,4.18
2023-12-28T19:58:20.758Z,4.09
2023-12-28T20:01:04.001Z,4.10
2023-12-28T20:03:47.231Z,4.12
2023-12-28T20:06:30.518Z,4.20
2023-12-28T20:09:14.336Z,4.33
2023-12-28T20:11:57.449Z,4.52
2023-12-28T20:14:42.074Z,4.51
2023-12-28T20:17:25.261Z,4.53
2023-12-28T20:20:10.470Z,4.64
2023-12-28T20:22:53.695Z,4.67
2023-12-28T20:25:38.288Z,4.73
2023-12-28T20:28:21.500Z,4.80
2023-12-28T20:31:07.035Z,4.85
2023-12-28T20:33:51.298Z,4.99
2023-12-28T20:36:34.521Z,5.08
2023-12-28T20:39:17.602Z,4.97
2023-12-28T20:42:00.726Z,4.89
2023-12-28T20:44:43.789Z,4.94
2023-12-28T20:47:29.007Z,5.00
2023-12-28T20:50:12.566Z,5.02
2023-12-28T20:52:55.673Z,5.00
2023-12-28T20:55:38.884Z,4.84
2023-12-28T20:58:22.008Z,5.02
2023-12-28T21:01:05.972Z,5.08
2023-12-28T21:03:50.775Z,4.97
2023-12-28T21:06:33.953Z,5.02
2023-12-28T21:09:17.126Z,4.87
2023-12-28T21:12:02.877Z,4.83
2023-12-28T21:14:46.442Z,4.71
2023-12-28T21:17:30.355Z,4.70
2023-12-28T21:20:15.180Z,4.58
2023-12-28T21:22:58.407Z,4.72
2023-12-28T21:25:41.566Z,4.66
2023-12-28T21:28:24.680Z,4.65
2023-12-28T21:31:08.326Z,4.55
2023-12-28T21:33:51.850Z,4.45
2023-12-28T21:36:36.823Z,4.28
2023-12-28T21:39:20.574Z,4.23
2023-12-28T21:42:06.729Z,4.02
2023-12-28T21:44:49.820Z,3.95
2023-12-28T21:47:33.027Z,3.82
2023-12-28T21:50:16.345Z,3.62
2023-12-28T21:53:00.847Z,3.45
2023-12-28T21:55:43.942Z,3.22
2023-12-28T21:58:27.120Z,3.21
2023-12-28T22:01:10.477Z,2.97
2023-12-28T22:03:53.702Z,2.99
2023-12-28T22:06:36.826Z,2.93
2023-12-28T22:09:21.714Z,2.70
2023-12-28T22:12:05.640Z,2.67
2023-12-28T22:14:48.743Z,2.63
2023-12-28T22:17:31.867Z,2.72
2023-12-28T22:20:15.558Z,2.58
2023-12-28T22:22:58.728Z,2.43
2023-12-28T22:25:43.352Z,2.40
2023-12-28T22:28:26.423Z,2.55
2023-12-28T22:31:09.581Z,2.35
2023-12-28T22:33:53.301Z,2.28
2023-12-28T22:36:36.692Z,2.18
2023-12-28T22:39:19.787Z,2.08
2023-12-28T22:42:04.273Z,2.06
2023-12-28T22:44:47.506Z,2.21
2023-12-28T22:47:30.942Z,2.32
2023-12-28T22:50:14.226Z,2.29
2023-12-28T22:52:57.334Z,2.47
2023-12-28T22:55:40.686Z,2.41
2023-12-28T22:58:25.197Z,2.28
2023-12-28T23:01:09.833Z,2.39
2023-12-28T23:03:53.065Z,2.29
2023-12-28T23:06:36.231Z,2.25
2023-12-28T23:09:19.405Z,2.16
2023-12-28T23:12:02.478Z,2.33
2023-12-28T23:14:46.944Z,2.53
2023-12-28T23:17:30.062Z,2.68
2023-12-28T23:20:13.795Z,2.63
2023-12-28T23:22:57.897Z,2.72
2023-12-28T23:25:41.021Z,2.71
2023-12-28T23:28:24.113Z,2.74
2023-12-28T23:31:08.977Z,2.80
2023-12-28T23:33:52.829Z,2.88
2023-12-28T23:36:38.340Z,2.90
2023-12-28T23:39:21.480Z,2.72
2023-12-28T23:42:06.012Z,2.72
2023-12-28T23:44:49.377Z,2.80
2023-12-28T23:47:33.849Z,2.74
2023-12-28T23:50:17.068Z,2.60
2023-12-28T23:53:00.249Z,2.52
2023-12-28T23:55:43.347Z,2.63
2023-12-28T23:58:26.415Z,2.89
